Aegean Orion — SVA2487 — position and weather

sailwx.info

Track history (hours):
 
Tides and Currents Weather Stations Pressure Air Temp Water Temp Dewpoint Dewpoint Depression Visibility Wind Speed Wind Dir Waves Ship Positions

Aegean Orion

Last reported at 2014-Jul-23 12:28 UTC. Time now 2014-Jul-23 18:11 UTC.
Position N 38°02' E 023°32'.

; draft 2.4 m.

Type: Ship. MMSI: 239550200.

Date/timePositionNaut miles runAvg speedWind from/ knotsBaromVisibWave heightAir tempDewpointWater temp
2014-Jul-23 12:28N 38°02' E 023°32'1 1.1
2014-Jul-23 11:33N 38°02' E 023°31'0 0.0
2014-Jul-23 09:31N 38°02' E 023°31'0 0.0
2014-Jul-23 08:32N 38°02' E 023°31'1 0.3
2014-Jul-23 06:26N 38°02' E 023°31'0 0.1
2014-Jul-23 05:33N 38°02' E 023°31'0 0.0
2014-Jul-22 09:32N 38°02' E 023°32'7 7.4
2014-Jul-22 08:33N 37°56' E 023°37'1 0.9
2014-Jul-22 07:33N 37°57' E 023°38'0 0.0
2014-Jul-22 06:33N 37°57' E 023°38'0 0.0
2014-Jul-22 05:33N 37°57' E 023°38'2 2.1
2014-Jul-22 04:33N 37°57' E 023°36'1 1.1
2014-Jul-22 03:33N 37°57' E 023°34'0 0.0
2014-Jul-22 02:33N 37°57' E 023°34'0 0.0
2014-Jul-22 01:33N 37°57' E 023°34'0 0.0
2014-Jul-22 00:33N 37°57' E 023°34'0 0.0
2014-Jul-21 23:33N 37°57' E 023°34'0 0.0
2014-Jul-21 22:33N 37°57' E 023°34'0 0.0
2014-Jul-21 21:33N 37°57' E 023°34'0 0.0
2014-Jul-21 20:33N 37°57' E 023°34'0 0.0
2014-Jul-21 20:18N 37°57' E 023°34'0 0.0
2014-Jul-21 19:33N 37°57' E 023°34'3 2.9
2014-Jul-21 18:33N 37°56' E 023°38'1 0.7
2014-Jul-21 17:33N 37°57' E 023°38'2 1.8
2014-Jul-21 16:33N 37°57' E 023°36'2 1.8
2014-Jul-21 15:33N 37°57' E 023°34'0 0.0
2014-Jul-21 14:33N 37°57' E 023°34'0 0.0
2014-Jul-21 13:33N 37°57' E 023°34'0 0.0
2014-Jul-21 12:33N 37°57' E 023°34'0 0.0
2014-Jul-21 11:33N 37°57' E 023°34'4 4.5
2014-Jul-21 10:34N 38°02' E 023°36'0 0.1
2014-Jul-21 09:33N 38°02' E 023°36'0 0.0
2014-Jul-21 08:29N 38°02' E 023°36'0 0.0
2014-Jul-21 07:33N 38°02' E 023°36'0 0.0
2014-Jul-21 06:33N 38°02' E 023°36'3 0.1
2014-Jul-19 06:33N 37°59' E 023°33'5 5.0
2014-Jul-19 05:33N 37°57' E 023°38'0 0.0
2014-Jul-19 04:33N 37°57' E 023°38'1 1.0
2014-Jul-19 03:33N 37°56' E 023°37'2 2.2
2014-Jul-19 02:33N 37°57' E 023°34'0 0.1
2014-Jul-19 01:33N 37°57' E 023°34'0 0.0
2014-Jul-19 00:33N 37°57' E 023°34'0 0.0
2014-Jul-18 23:33N 37°57' E 023°34'0 0.0
2014-Jul-18 22:33N 37°57' E 023°34'0 0.0
2014-Jul-18 21:33N 37°57' E 023°34'0 0.0
2014-Jul-18 20:33N 37°57' E 023°34'0 0.0
2014-Jul-18 19:33N 37°57' E 023°34'0 0.0
2014-Jul-18 18:33N 37°57' E 023°34'0 0.0
2014-Jul-18 17:33N 37°57' E 023°34'0 0.0
2014-Jul-18 16:33N 37°57' E 023°34'0 0.0
2014-Jul-18 15:33N 37°57' E 023°34'0 0.0
2014-Jul-18 14:33N 37°57' E 023°34'0 0.0
2014-Jul-18 13:33N 37°57' E 023°34'0 0.0
2014-Jul-18 12:33N 37°57' E 023°34'0 0.0
2014-Jul-18 11:33N 37°57' E 023°34'3 2.6
2014-Jul-18 10:33N 37°56' E 023°37'0 0.0
2014-Jul-18 09:33N 37°56' E 023°38'1 0.5
2014-Jul-18 07:33N 37°57' E 023°36'7 0.9
2014-Jul-18 00:29N 38°02' E 023°32'0 0.0
2014-Jul-17 23:29N 38°02' E 023°32'0 0.0
2014-Jul-17 22:28N 38°02' E 023°32'0 0.0
2014-Jul-17 21:30N 38°02' E 023°32'0 0.0
2014-Jul-17 20:31N 38°02' E 023°32'0 0.0
2014-Jul-17 19:33N 38°02' E 023°32'5 5.1
2014-Jul-17 18:33N 37°57' E 023°34'4 3.9
2014-Jul-17 17:33N 37°57' E 023°38'1 1.4
2014-Jul-17 16:33N 37°56' E 023°37'2 1.8
2014-Jul-17 15:33N 37°57' E 023°35'0 0.0
2014-Jul-17 14:33N 37°57' E 023°35'3 2.9
2014-Jul-17 13:33N 37°57' E 023°38'0 0.0
2014-Jul-17 12:33N 37°57' E 023°38'2 2.2
2014-Jul-17 11:33N 37°57' E 023°36'1 1.3
2014-Jul-17 10:33N 37°57' E 023°34'0 0.1
2014-Jul-17 09:33N 37°57' E 023°34'0 0.3
2014-Jul-17 08:33N 37°57' E 023°34'5 3.4
2014-Jul-17 07:07N 38°02' E 023°35'0 0.0
2014-Jul-17 06:17N 38°02' E 023°35'0 0.0
2014-Jul-17 05:32N 38°02' E 023°35'5 4.9
2014-Jul-17 04:33N 37°57' E 023°34'0 0.1
2014-Jul-17 03:33N 37°57' E 023°34'0 0.0
2014-Jul-17 02:33N 37°57' E 023°34'0 0.0
2014-Jul-17 01:33N 37°57' E 023°34'0 0.0
2014-Jul-17 00:33N 37°57' E 023°34'0 0.0
2014-Jul-16 23:33N 37°57' E 023°34'3 3.2
2014-Jul-16 22:33N 37°57' E 023°38'0 0.0
2014-Jul-16 21:33N 37°57' E 023°38'0 0.1
2014-Jul-16 20:33N 37°57' E 023°38'3 3.4
2014-Jul-16 19:33N 37°57' E 023°34'0 0.0
2014-Jul-16 18:33N 37°57' E 023°34'0 0.0
2014-Jul-16 17:33N 37°57' E 023°34'0 0.0
2014-Jul-16 16:33N 37°57' E 023°34'5 4.8
2014-Jul-16 15:33N 38°02' E 023°32'0 0.4
2014-Jul-16 14:31N 38°02' E 023°32'0 0.0
2014-Jul-16 13:31N 38°02' E 023°32'0 0.0
2014-Jul-16 05:10N 38°02' E 023°32'0 0.0
2014-Jul-15 10:05N 38°02' E 023°32'0 0.5
2014-Jul-15 09:33N 38°02' E 023°32'7 6.7
2014-Jul-15 08:33N 37°56' E 023°37'1 1.0
2014-Jul-15 07:33N 37°57' E 023°38'0 0.0
2014-Jul-15 06:33N 37°57' E 023°38'2 2.1
2014-Jul-15 05:33N 37°57' E 023°35'6 6.1
2014-Jul-15 04:33N 38°02' E 023°32'0 0.0
2014-Jul-15 03:33N 38°02' E 023°32'0 0.0
2014-Jul-14 15:12N 38°02' E 023°32'1 1.5
2014-Jul-14 14:33N 38°02' E 023°31'0 0.0
2014-Jul-14 13:33N 38°02' E 023°31'0 0.0
2014-Jul-14 12:33N 38°02' E 023°31'0 0.0
2014-Jul-14 11:33N 38°02' E 023°31'0 0.1
2014-Jul-14 10:33N 38°02' E 023°31'0 0.5
2014-Jul-14 09:33N 38°02' E 023°31'0 0.0
2014-Jul-14 08:33N 38°02' E 023°31'0 0.0
2014-Jul-14 07:33N 38°02' E 023°31'1 0.5
2014-Jul-14 06:22N 38°02' E 023°32'5 2.9
2014-Jul-14 04:33N 37°57' E 023°34'0 0.0
2014-Jul-14 03:33N 37°57' E 023°34'0 0.0
2014-Jul-14 02:33N 37°57' E 023°34'0 0.0
2014-Jul-14 01:33N 37°57' E 023°34'0 0.0
2014-Jul-14 00:33N 37°57' E 023°34'  
Track history (hours):
 
Tides and Currents Weather Stations Pressure Air Temp Water Temp Dewpoint Dewpoint Depression Visibility Wind Speed Wind Dir Waves Ship Positions

Aegean Orion

Last reported at 2014-Jul-23 12:28 UTC. Time now 2014-Jul-23 18:11 UTC.
Position N 38°02' E 023°32'.

; draft 2.4 m.

Type: Ship. MMSI: 239550200.

Date/timePositionNaut miles runAvg speedWind from/ knotsBaromVisibWave heightAir tempDewpointWater temp
2014-Jul-23 12:28N 38°02' E 023°32'1 1.1
2014-Jul-23 11:33N 38°02' E 023°31'0 0.0
2014-Jul-23 09:31N 38°02' E 023°31'0 0.0
2014-Jul-23 08:32N 38°02' E 023°31'1 0.3
2014-Jul-23 06:26N 38°02' E 023°31'0 0.1
2014-Jul-23 05:33N 38°02' E 023°31'0 0.0
2014-Jul-22 09:32N 38°02' E 023°32'7 7.4
2014-Jul-22 08:33N 37°56' E 023°37'1 0.9
2014-Jul-22 07:33N 37°57' E 023°38'0 0.0
2014-Jul-22 06:33N 37°57' E 023°38'0 0.0
2014-Jul-22 05:33N 37°57' E 023°38'2 2.1
2014-Jul-22 04:33N 37°57' E 023°36'1 1.1
2014-Jul-22 03:33N 37°57' E 023°34'0 0.0
2014-Jul-22 02:33N 37°57' E 023°34'0 0.0
2014-Jul-22 01:33N 37°57' E 023°34'0 0.0
2014-Jul-22 00:33N 37°57' E 023°34'0 0.0
2014-Jul-21 23:33N 37°57' E 023°34'0 0.0
2014-Jul-21 22:33N 37°57' E 023°34'0 0.0
2014-Jul-21 21:33N 37°57' E 023°34'0 0.0
2014-Jul-21 20:33N 37°57' E 023°34'0 0.0
2014-Jul-21 20:18N 37°57' E 023°34'0 0.0
2014-Jul-21 19:33N 37°57' E 023°34'3 2.9
2014-Jul-21 18:33N 37°56' E 023°38'1 0.7
2014-Jul-21 17:33N 37°57' E 023°38'2 1.8
2014-Jul-21 16:33N 37°57' E 023°36'2 1.8
2014-Jul-21 15:33N 37°57' E 023°34'0 0.0
2014-Jul-21 14:33N 37°57' E 023°34'0 0.0
2014-Jul-21 13:33N 37°57' E 023°34'0 0.0
2014-Jul-21 12:33N 37°57' E 023°34'0 0.0
2014-Jul-21 11:33N 37°57' E 023°34'4 4.5
2014-Jul-21 10:34N 38°02' E 023°36'0 0.1
2014-Jul-21 09:33N 38°02' E 023°36'0 0.0
2014-Jul-21 08:29N 38°02' E 023°36'0 0.0
2014-Jul-21 07:33N 38°02' E 023°36'0 0.0
2014-Jul-21 06:33N 38°02' E 023°36'3 0.1
2014-Jul-19 06:33N 37°59' E 023°33'5 5.0
2014-Jul-19 05:33N 37°57' E 023°38'0 0.0
2014-Jul-19 04:33N 37°57' E 023°38'1 1.0
2014-Jul-19 03:33N 37°56' E 023°37'2 2.2
2014-Jul-19 02:33N 37°57' E 023°34'0 0.1
2014-Jul-19 01:33N 37°57' E 023°34'0 0.0
2014-Jul-19 00:33N 37°57' E 023°34'0 0.0
2014-Jul-18 23:33N 37°57' E 023°34'0 0.0
2014-Jul-18 22:33N 37°57' E 023°34'0 0.0
2014-Jul-18 21:33N 37°57' E 023°34'0 0.0
2014-Jul-18 20:33N 37°57' E 023°34'0 0.0
2014-Jul-18 19:33N 37°57' E 023°34'0 0.0
2014-Jul-18 18:33N 37°57' E 023°34'0 0.0
2014-Jul-18 17:33N 37°57' E 023°34'0 0.0
2014-Jul-18 16:33N 37°57' E 023°34'0 0.0
2014-Jul-18 15:33N 37°57' E 023°34'0 0.0
2014-Jul-18 14:33N 37°57' E 023°34'0 0.0
2014-Jul-18 13:33N 37°57' E 023°34'0 0.0
2014-Jul-18 12:33N 37°57' E 023°34'0 0.0
2014-Jul-18 11:33N 37°57' E 023°34'3 2.6
2014-Jul-18 10:33N 37°56' E 023°37'0 0.0
2014-Jul-18 09:33N 37°56' E 023°38'1 0.5
2014-Jul-18 07:33N 37°57' E 023°36'7 0.9
2014-Jul-18 00:29N 38°02' E 023°32'0 0.0
2014-Jul-17 23:29N 38°02' E 023°32'0 0.0
2014-Jul-17 22:28N 38°02' E 023°32'0 0.0
2014-Jul-17 21:30N 38°02' E 023°32'0 0.0
2014-Jul-17 20:31N 38°02' E 023°32'0 0.0
2014-Jul-17 19:33N 38°02' E 023°32'5 5.1
2014-Jul-17 18:33N 37°57' E 023°34'4 3.9
2014-Jul-17 17:33N 37°57' E 023°38'1 1.4
2014-Jul-17 16:33N 37°56' E 023°37'2 1.8
2014-Jul-17 15:33N 37°57' E 023°35'0 0.0
2014-Jul-17 14:33N 37°57' E 023°35'3 2.9
2014-Jul-17 13:33N 37°57' E 023°38'0 0.0
2014-Jul-17 12:33N 37°57' E 023°38'2 2.2
2014-Jul-17 11:33N 37°57' E 023°36'1 1.3
2014-Jul-17 10:33N 37°57' E 023°34'0 0.1
2014-Jul-17 09:33N 37°57' E 023°34'0 0.3
2014-Jul-17 08:33N 37°57' E 023°34'5 3.4
2014-Jul-17 07:07N 38°02' E 023°35'0 0.0
2014-Jul-17 06:17N 38°02' E 023°35'0 0.0
2014-Jul-17 05:32N 38°02' E 023°35'5 4.9
2014-Jul-17 04:33N 37°57' E 023°34'0 0.1
2014-Jul-17 03:33N 37°57' E 023°34'0 0.0
2014-Jul-17 02:33N 37°57' E 023°34'0 0.0
2014-Jul-17 01:33N 37°57' E 023°34'0 0.0
2014-Jul-17 00:33N 37°57' E 023°34'0 0.0
2014-Jul-16 23:33N 37°57' E 023°34'3 3.2
2014-Jul-16 22:33N 37°57' E 023°38'0 0.0
2014-Jul-16 21:33N 37°57' E 023°38'0 0.1
2014-Jul-16 20:33N 37°57' E 023°38'3 3.4
2014-Jul-16 19:33N 37°57' E 023°34'0 0.0
2014-Jul-16 18:33N 37°57' E 023°34'0 0.0
2014-Jul-16 17:33N 37°57' E 023°34'0 0.0
2014-Jul-16 16:33N 37°57' E 023°34'5 4.8
2014-Jul-16 15:33N 38°02' E 023°32'0 0.4
2014-Jul-16 14:31N 38°02' E 023°32'0 0.0
2014-Jul-16 13:31N 38°02' E 023°32'0 0.0
2014-Jul-16 05:10N 38°02' E 023°32'0 0.0
2014-Jul-15 10:05N 38°02' E 023°32'0 0.5
2014-Jul-15 09:33N 38°02' E 023°32'7 6.7
2014-Jul-15 08:33N 37°56' E 023°37'1 1.0
2014-Jul-15 07:33N 37°57' E 023°38'0 0.0
2014-Jul-15 06:33N 37°57' E 023°38'2 2.1
2014-Jul-15 05:33N 37°57' E 023°35'6 6.1
2014-Jul-15 04:33N 38°02' E 023°32'0 0.0
2014-Jul-15 03:33N 38°02' E 023°32'0 0.0
2014-Jul-14 15:12N 38°02' E 023°32'1 1.5
2014-Jul-14 14:33N 38°02' E 023°31'0 0.0
2014-Jul-14 13:33N 38°02' E 023°31'0 0.0
2014-Jul-14 12:33N 38°02' E 023°31'0 0.0
2014-Jul-14 11:33N 38°02' E 023°31'0 0.1
2014-Jul-14 10:33N 38°02' E 023°31'0 0.5
2014-Jul-14 09:33N 38°02' E 023°31'0 0.0
2014-Jul-14 08:33N 38°02' E 023°31'0 0.0
2014-Jul-14 07:33N 38°02' E 023°31'1 0.5
2014-Jul-14 06:22N 38°02' E 023°32'5 2.9
2014-Jul-14 04:33N 37°57' E 023°34'0 0.0
2014-Jul-14 03:33N 37°57' E 023°34'0 0.0
2014-Jul-14 02:33N 37°57' E 023°34'0 0.0
2014-Jul-14 01:33N 37°57' E 023°34'0 0.0
2014-Jul-14 00:33N 37°57' E 023°34'  

Dump ship's entire track history